createdAt,value
2022-11-15T08:27:37.754Z,97795.00
2022-11-15T08:33:18.064Z,97794.00
2022-11-15T08:38:39.245Z,97799.00
2022-11-15T08:44:00.487Z,97780.00
2022-11-15T08:49:21.956Z,97779.00
2022-11-15T08:54:43.181Z,97765.00
2022-11-15T09:00:06.348Z,97761.00
2022-11-15T09:05:28.464Z,97756.00
2022-11-15T09:10:49.606Z,97769.00
2022-11-15T09:16:12.999Z,97766.00
2022-11-15T09:21:34.361Z,97769.00
2022-11-15T09:26:55.397Z,97751.00
2022-11-15T09:32:16.501Z,97750.00
2022-11-15T09:37:37.716Z,97746.00
2022-11-15T09:43:14.170Z,97743.00
2022-11-15T09:48:47.391Z,97731.00
2022-11-15T09:59:43.607Z,97735.00
2022-11-15T10:04:46.776Z,97727.00
2022-11-15T10:10:03.000Z,97722.00
2022-11-15T10:15:12.814Z,97718.00
2022-11-15T10:20:25.092Z,97725.00
2022-11-15T10:25:30.689Z,97710.00
2022-11-15T10:30:40.648Z,97707.00
2022-11-15T10:35:43.818Z,97696.00
2022-11-15T10:40:46.626Z,97695.00
2022-11-15T10:45:51.029Z,97683.00
2022-11-15T10:50:56.111Z,97681.00
2022-11-15T10:56:06.269Z,97681.00
2022-11-15T11:01:18.039Z,97678.00
2022-11-15T11:06:23.644Z,97668.00
2022-11-15T11:11:46.131Z,97668.00
2022-11-15T11:17:16.883Z,97667.00
2022-11-15T11:22:43.767Z,97656.00
2022-11-15T11:28:20.530Z,97653.00
2022-11-15T11:33:37.535Z,97639.00
2022-11-15T11:38:55.960Z,97634.00
2022-11-15T11:44:25.531Z,97628.00
2022-11-15T11:49:33.492Z,97617.00
2022-11-15T11:55:01.374Z,97610.00
2022-11-15T12:00:21.104Z,97619.00
2022-11-15T12:05:40.533Z,97603.00
2022-11-15T12:10:49.634Z,97603.00
2022-11-15T12:16:14.738Z,97600.00
2022-11-15T12:21:42.133Z,97593.00
2022-11-15T12:26:54.912Z,97583.00
2022-11-15T12:32:01.071Z,97580.00
2022-11-15T12:37:24.051Z,97574.00
2022-11-15T12:42:40.251Z,97578.00
2022-11-15T12:47:43.094Z,97562.00
2022-11-15T12:53:23.375Z,97563.00
2022-11-15T12:58:42.010Z,97555.00
2022-11-15T13:04:20.169Z,97554.00
2022-11-15T13:09:35.024Z,97550.00
2022-11-15T13:14:48.432Z,97547.00
2022-11-15T13:20:01.418Z,97548.00
2022-11-15T13:25:05.173Z,97552.00
2022-11-15T13:30:15.412Z,97552.00
2022-11-15T13:35:24.800Z,97545.00
2022-11-15T13:40:31.572Z,97543.00
2022-11-15T13:45:34.362Z,97541.00
2022-11-15T13:50:40.437Z,97536.00
2022-11-15T13:55:43.541Z,97536.00
2022-11-15T14:00:48.361Z,97529.00
2022-11-15T14:06:14.202Z,97523.00
2022-11-15T14:11:21.471Z,97527.00
2022-11-15T14:16:38.015Z,97510.00
2022-11-15T14:22:17.804Z,97496.00
2022-11-15T14:27:27.173Z,97498.00
2022-11-15T14:32:45.180Z,97502.00
2022-11-15T14:37:48.573Z,97499.00
2022-11-15T14:42:52.056Z,97495.00
2022-11-15T14:47:54.915Z,97491.00
2022-11-15T14:52:57.705Z,97481.00
2022-11-15T14:58:00.943Z,97470.00
2022-11-15T15:03:04.670Z,97465.00
2022-11-15T15:08:07.843Z,97464.00
2022-11-15T15:13:21.248Z,97464.00
2022-11-15T15:18:24.072Z,97462.00
2022-11-15T15:23:30.323Z,97459.00
2022-11-15T15:28:34.841Z,97458.00
2022-11-15T15:33:38.315Z,97460.00
2022-11-15T15:38:42.469Z,97460.00
2022-11-15T15:43:45.389Z,97447.00
2022-11-15T15:48:48.469Z,97447.00
2022-11-15T15:53:52.656Z,97433.00
2022-11-15T15:58:56.591Z,97431.00
2022-11-15T16:03:59.376Z,97428.00
2022-11-15T16:09:15.118Z,97419.00
2022-11-15T16:14:18.334Z,97418.00
2022-11-15T16:19:21.138Z,97414.00
2022-11-15T16:24:24.079Z,97421.00
2022-11-15T16:29:27.098Z,97407.00
2022-11-15T16:34:33.839Z,97393.00
2022-11-15T16:39:38.842Z,97391.00
2022-11-15T16:44:41.655Z,97399.00
2022-11-15T16:49:45.485Z,97399.00
2022-11-15T16:54:48.306Z,97411.00
2022-11-15T16:59:51.075Z,97411.00
2022-11-15T17:04:53.858Z,97411.00
2022-11-15T17:09:56.619Z,97407.00
2022-11-15T17:14:59.453Z,97404.00
2022-11-15T17:20:05.158Z,97394.00
2022-11-15T17:25:08.088Z,97384.00
2022-11-15T17:30:13.071Z,97377.00
2022-11-15T17:35:16.130Z,97383.00
2022-11-15T17:40:19.057Z,97377.00
2022-11-15T17:45:21.973Z,97376.00
2022-11-15T17:50:24.728Z,97367.00
2022-11-15T17:55:27.519Z,97375.00
2022-11-15T18:00:30.315Z,97364.00
2022-11-15T18:05:33.116Z,97376.00
2022-11-15T18:10:35.888Z,97365.00
2022-11-15T18:15:38.768Z,97371.00
2022-11-15T18:20:41.530Z,97373.00
2022-11-15T18:25:51.185Z,97354.00
2022-11-15T18:30:53.958Z,97353.00
2022-11-15T18:36:05.466Z,97361.00
2022-11-15T18:41:11.334Z,97364.00
2022-11-15T18:46:16.728Z,97352.00
2022-11-15T18:51:27.449Z,97355.00
2022-11-15T18:56:32.484Z,97335.00
2022-11-15T19:01:37.671Z,97330.00
2022-11-15T19:06:42.468Z,97330.00
2022-11-15T19:11:47.158Z,97320.00
2022-11-15T19:16:52.164Z,97320.00
2022-11-15T19:21:58.075Z,97323.00
2022-11-15T19:27:00.941Z,97313.00
2022-11-15T19:32:05.378Z,97315.00
2022-11-15T19:37:08.180Z,97308.00
2022-11-15T19:42:11.165Z,97308.00
2022-11-15T19:47:13.987Z,97301.00
2022-11-15T19:52:16.704Z,97288.00
2022-11-15T19:57:19.483Z,97280.00
2022-11-15T20:02:22.201Z,97280.00
2022-11-15T20:07:25.053Z,97281.00
2022-11-15T20:12:27.854Z,97275.00
2022-11-15T20:17:30.570Z,97281.00
2022-11-15T20:22:36.334Z,97282.00
2022-11-15T20:27:39.044Z,97273.00
2022-11-15T20:32:41.920Z,97271.00
2022-11-15T20:37:45.579Z,97254.00
2022-11-15T20:42:48.332Z,97270.00
2022-11-15T20:47:51.055Z,97253.00
2022-11-15T20:52:55.449Z,97247.00
2022-11-15T20:57:58.231Z,97239.00
2022-11-15T21:03:00.944Z,97245.00
2022-11-15T21:08:03.763Z,97257.00
2022-11-15T21:13:06.476Z,97238.00
2022-11-15T21:18:09.361Z,97228.00
2022-11-15T21:23:12.695Z,97232.00
2022-11-15T21:28:15.406Z,97228.00
2022-11-15T21:33:18.602Z,97221.00
2022-11-15T21:38:23.787Z,97211.00
2022-11-15T21:43:26.619Z,97200.00
2022-11-15T21:48:31.930Z,97191.00
2022-11-15T21:53:35.595Z,97197.00
2022-11-15T21:58:39.660Z,97186.00
2022-11-15T22:03:43.134Z,97177.00
2022-11-15T22:08:46.831Z,97165.00
2022-11-15T22:13:49.626Z,97176.00
2022-11-15T22:18:52.451Z,97167.00
2022-11-15T22:23:55.247Z,97173.00
2022-11-15T22:28:58.047Z,97155.00
2022-11-15T22:34:00.870Z,97153.00
2022-11-15T22:39:03.686Z,97151.00
2022-11-15T22:44:06.673Z,97133.00
2022-11-15T22:49:09.607Z,97137.00
2022-11-15T22:54:12.418Z,97119.00
2022-11-15T22:59:15.245Z,97109.00
2022-11-15T23:04:18.068Z,97104.00
2022-11-15T23:09:20.841Z,97106.00
